Aviation Digital Data Service (ADDS)

Output produced by METARs form (0717 UTC 29 August 2015)
found at http://aviationweather.gov/adds/metars/
 
KISP 290523Z 2906/3006 VRB02KT P6SM SKC 
     FM291300 26005KT P6SM FEW250 
     FM291800 20009KT P6SM FEW050 SCT250 
     FM300300 22006KT P6SM SCT250